sensor_id;sensor_type;location;lat;lon;timestamp;P1;durP1;ratioP1;P2;durP2;ratioP2
69161;SDS011;56269;51.738;21.652;2023-04-01T00:01:24;30.40;;;13.10;;
69161;SDS011;56269;51.738;21.652;2023-04-01T00:03:51;30.45;;;13.10;;
69161;SDS011;56269;51.738;21.652;2023-04-01T00:06:22;27.70;;;12.73;;
69161;SDS011;56269;51.738;21.652;2023-04-01T00:08:49;33.10;;;13.52;;
69161;SDS011;56269;51.738;21.652;2023-04-01T00:11:16;33.05;;;14.50;;
69161;SDS011;56269;51.738;21.652;2023-04-01T00:13:42;36.60;;;15.45;;
69161;SDS011;56269;51.738;21.652;2023-04-01T00:16:10;37.08;;;15.18;;
69161;SDS011;56269;51.738;21.652;2023-04-01T00:18:36;38.37;;;16.40;;
69161;SDS011;56269;51.738;21.652;2023-04-01T00:21:02;40.67;;;15.82;;
69161;SDS011;56269;51.738;21.652;2023-04-01T00:23:29;41.72;;;16.20;;
69161;SDS011;56269;51.738;21.652;2023-04-01T00:25:55;43.50;;;16.25;;
69161;SDS011;56269;51.738;21.652;2023-04-01T00:28:24;41.97;;;16.13;;
69161;SDS011;56269;51.738;21.652;2023-04-01T00:30:50;38.13;;;15.93;;
69161;SDS011;56269;51.738;21.652;2023-04-01T00:33:18;45.30;;;17.02;;
69161;SDS011;56269;51.738;21.652;2023-04-01T00:35:44;43.08;;;17.05;;
69161;SDS011;56269;51.738;21.652;2023-04-01T00:38:11;43.42;;;16.85;;
69161;SDS011;56269;51.738;21.652;2023-04-01T00:40:40;41.83;;;16.83;;
69161;SDS011;56269;51.738;21.652;2023-04-01T00:43:13;45.93;;;16.50;;
69161;SDS011;56269;51.738;21.652;2023-04-01T00:45:45;47.47;;;17.58;;
69161;SDS011;56269;51.738;21.652;2023-04-01T00:48:14;67.03;;;18.00;;
69161;SDS011;56269;51.738;21.652;2023-04-01T00:50:50;44.65;;;17.33;;
69161;SDS011;56269;51.738;21.652;2023-04-01T00:53:20;61.80;;;18.17;;
69161;SDS011;56269;51.738;21.652;2023-04-01T00:55:52;57.17;;;17.60;;
69161;SDS011;56269;51.738;21.652;2023-04-01T00:58:24;54.92;;;18.33;;
69161;SDS011;56269;51.738;21.652;2023-04-01T01:00:53;56.10;;;19.83;;
69161;SDS011;56269;51.738;21.652;2023-04-01T01:03:21;52.45;;;20.27;;
69161;SDS011;56269;51.738;21.652;2023-04-01T01:11:22;54.55;;;21.77;;
69161;SDS011;56269;51.738;21.652;2023-04-01T01:13:58;60.72;;;23.50;;
69161;SDS011;56269;51.738;21.652;2023-04-01T01:16:31;62.50;;;23.67;;
69161;SDS011;56269;51.738;21.652;2023-04-01T01:24:28;65.25;;;23.63;;
69161;SDS011;56269;51.738;21.652;2023-04-01T01:27:04;58.67;;;22.50;;
69161;SDS011;56269;51.738;21.652;2023-04-01T01:35:54;64.27;;;24.13;;
69161;SDS011;56269;51.738;21.652;2023-04-01T01:38:26;66.38;;;24.27;;
69161;SDS011;56269;51.738;21.652;2023-04-01T01:40:55;66.03;;;24.10;;
69161;SDS011;56269;51.738;21.652;2023-04-01T01:43:24;69.57;;;24.63;;
69161;SDS011;56269;51.738;21.652;2023-04-01T01:45:56;65.82;;;24.60;;
69161;SDS011;56269;51.738;21.652;2023-04-01T01:48:26;66.67;;;24.20;;
69161;SDS011;56269;51.738;21.652;2023-04-01T01:50:55;65.53;;;23.92;;
69161;SDS011;56269;51.738;21.652;2023-04-01T01:53:22;65.13;;;22.92;;
69161;SDS011;56269;51.738;21.652;2023-04-01T01:55:48;63.47;;;24.05;;
69161;SDS011;56269;51.738;21.652;2023-04-01T01:58:25;60.65;;;23.00;;
69161;SDS011;56269;51.738;21.652;2023-04-01T02:00:57;58.73;;;21.97;;
69161;SDS011;56269;51.738;21.652;2023-04-01T02:03:27;63.08;;;22.10;;
69161;SDS011;56269;51.738;21.652;2023-04-01T02:05:59;57.22;;;21.35;;
69161;SDS011;56269;51.738;21.652;2023-04-01T02:11:15;58.65;;;21.48;;
69161;SDS011;56269;51.738;21.652;2023-04-01T02:14:49;50.60;;;20.73;;
69161;SDS011;56269;51.738;21.652;2023-04-01T02:19:28;53.60;;;20.73;;
69161;SDS011;56269;51.738;21.652;2023-04-01T02:22:05;56.58;;;21.38;;
69161;SDS011;56269;51.738;21.652;2023-04-01T02:24:37;63.55;;;20.02;;
69161;SDS011;56269;51.738;21.652;2023-04-01T02:27:06;511.83;;;28.13;;
69161;SDS011;56269;51.738;21.652;2023-04-01T02:29:34;288.50;;;24.88;;
69161;SDS011;56269;51.738;21.652;2023-04-01T02:32:00;569.83;;;29.83;;
69161;SDS011;56269;51.738;21.652;2023-04-01T02:34:29;465.35;;;23.75;;
69161;SDS011;56269;51.738;21.652;2023-04-01T02:36:56;319.02;;;21.92;;
69161;SDS011;56269;51.738;21.652;2023-04-01T02:39:23;147.50;;;16.97;;
69161;SDS011;56269;51.738;21.652;2023-04-01T02:41:51;255.30;;;21.23;;
69161;SDS011;56269;51.738;21.652;2023-04-01T02:44:18;320.20;;;21.98;;
69161;SDS011;56269;51.738;21.652;2023-04-01T02:46:45;353.10;;;23.38;;
69161;SDS011;56269;51.738;21.652;2023-04-01T02:49:11;195.07;;;20.50;;
69161;SDS011;56269;51.738;21.652;2023-04-01T02:51:37;211.00;;;21.87;;
69161;SDS011;56269;51.738;21.652;2023-04-01T02:54:04;113.30;;;20.27;;
69161;SDS011;56269;51.738;21.652;2023-04-01T02:56:31;74.47;;;20.20;;
69161;SDS011;56269;51.738;21.652;2023-04-01T02:58:58;78.72;;;21.88;;
69161;SDS011;56269;51.738;21.652;2023-04-01T03:01:24;68.30;;;22.08;;
69161;SDS011;56269;51.738;21.652;2023-04-01T03:03:52;72.77;;;21.00;;
69161;SDS011;56269;51.738;21.652;2023-04-01T03:06:18;82.75;;;22.17;;
69161;SDS011;56269;51.738;21.652;2023-04-01T03:08:46;69.05;;;21.27;;
69161;SDS011;56269;51.738;21.652;2023-04-01T03:11:12;67.07;;;21.48;;
69161;SDS011;56269;51.738;21.652;2023-04-01T03:13:39;72.88;;;22.45;;
69161;SDS011;56269;51.738;21.652;2023-04-01T03:16:05;71.70;;;22.00;;
69161;SDS011;56269;51.738;21.652;2023-04-01T03:18:32;77.28;;;22.58;;
69161;SDS011;56269;51.738;21.652;2023-04-01T03:21:11;75.32;;;23.55;;
69161;SDS011;56269;51.738;21.652;2023-04-01T03:23:42;69.47;;;23.02;;
69161;SDS011;56269;51.738;21.652;2023-04-01T03:26:09;74.53;;;22.50;;
69161;SDS011;56269;51.738;21.652;2023-04-01T03:28:36;66.40;;;21.60;;
69161;SDS011;56269;51.738;21.652;2023-04-01T03:31:03;60.50;;;20.35;;
69161;SDS011;56269;51.738;21.652;2023-04-01T03:33:29;56.22;;;20.45;;
69161;SDS011;56269;51.738;21.652;2023-04-01T03:35:57;54.55;;;19.20;;
69161;SDS011;56269;51.738;21.652;2023-04-01T03:38:24;62.45;;;20.38;;
69161;SDS011;56269;51.738;21.652;2023-04-01T03:40:50;51.20;;;19.00;;
69161;SDS011;56269;51.738;21.652;2023-04-01T03:43:17;59.20;;;19.77;;
69161;SDS011;56269;51.738;21.652;2023-04-01T03:45:44;48.88;;;17.90;;
69161;SDS011;56269;51.738;21.652;2023-04-01T03:48:15;54.50;;;19.25;;
69161;SDS011;56269;51.738;21.652;2023-04-01T03:50:41;47.25;;;18.30;;
69161;SDS011;56269;51.738;21.652;2023-04-01T03:53:08;40.50;;;17.50;;
69161;SDS011;56269;51.738;21.652;2023-04-01T03:55:35;49.10;;;18.10;;
69161;SDS011;56269;51.738;21.652;2023-04-01T03:58:03;47.95;;;18.50;;
69161;SDS011;56269;51.738;21.652;2023-04-01T04:00:31;45.10;;;17.23;;
69161;SDS011;56269;51.738;21.652;2023-04-01T04:02:58;44.97;;;17.48;;
69161;SDS011;56269;51.738;21.652;2023-04-01T04:05:25;40.53;;;16.47;;
69161;SDS011;56269;51.738;21.652;2023-04-01T04:07:52;42.20;;;17.73;;
69161;SDS011;56269;51.738;21.652;2023-04-01T04:10:20;41.55;;;16.73;;
69161;SDS011;56269;51.738;21.652;2023-04-01T04:12:49;41.92;;;16.90;;
69161;SDS011;56269;51.738;21.652;2023-04-01T04:15:25;41.75;;;16.80;;
69161;SDS011;56269;51.738;21.652;2023-04-01T04:17:51;38.67;;;17.17;;
69161;SDS011;56269;51.738;21.652;2023-04-01T04:20:17;38.70;;;16.45;;
69161;SDS011;56269;51.738;21.652;2023-04-01T04:22:44;41.20;;;16.30;;
69161;SDS011;56269;51.738;21.652;2023-04-01T04:25:10;43.08;;;18.02;;
69161;SDS011;56269;51.738;21.652;2023-04-01T04:27:37;44.75;;;19.15;;
69161;SDS011;56269;51.738;21.652;2023-04-01T04:30:05;43.93;;;18.43;;
69161;SDS011;56269;51.738;21.652;2023-04-01T04:32:33;51.80;;;21.75;;
69161;SDS011;56269;51.738;21.652;2023-04-01T04:35:00;45.55;;;18.30;;
69161;SDS011;56269;51.738;21.652;2023-04-01T04:37:26;39.88;;;17.13;;
69161;SDS011;56269;51.738;21.652;2023-04-01T04:39:52;39.92;;;16.70;;
69161;SDS011;56269;51.738;21.652;2023-04-01T04:42:19;37.03;;;15.70;;
69161;SDS011;56269;51.738;21.652;2023-04-01T04:44:46;41.55;;;17.20;;
69161;SDS011;56269;51.738;21.652;2023-04-01T04:47:14;36.97;;;15.90;;
69161;SDS011;56269;51.738;21.652;2023-04-01T04:49:40;40.10;;;16.25;;
69161;SDS011;56269;51.738;21.652;2023-04-01T04:52:09;37.72;;;16.35;;
69161;SDS011;56269;51.738;21.652;2023-04-01T04:54:35;41.87;;;16.50;;
69161;SDS011;56269;51.738;21.652;2023-04-01T04:57:02;40.83;;;16.20;;
69161;SDS011;56269;51.738;21.652;2023-04-01T04:59:29;39.35;;;15.98;;
69161;SDS011;56269;51.738;21.652;2023-04-01T05:01:58;34.83;;;15.20;;
69161;SDS011;56269;51.738;21.652;2023-04-01T05:04:24;37.92;;;16.27;;
69161;SDS011;56269;51.738;21.652;2023-04-01T05:06:51;38.60;;;16.30;;
69161;SDS011;56269;51.738;21.652;2023-04-01T05:09:17;38.95;;;16.00;;
69161;SDS011;56269;51.738;21.652;2023-04-01T05:11:44;35.50;;;13.95;;
69161;SDS011;56269;51.738;21.652;2023-04-01T05:14:14;37.72;;;15.85;;
69161;SDS011;56269;51.738;21.652;2023-04-01T05:16:42;34.70;;;14.88;;
69161;SDS011;56269;51.738;21.652;2023-04-01T05:19:08;34.00;;;15.03;;
69161;SDS011;56269;51.738;21.652;2023-04-01T05:21:35;34.40;;;14.52;;
69161;SDS011;56269;51.738;21.652;2023-04-01T05:24:01;37.42;;;15.60;;
69161;SDS011;56269;51.738;21.652;2023-04-01T05:26:28;35.90;;;15.52;;
69161;SDS011;56269;51.738;21.652;2023-04-01T05:28:54;38.65;;;14.30;;
69161;SDS011;56269;51.738;21.652;2023-04-01T05:31:20;34.37;;;15.17;;
69161;SDS011;56269;51.738;21.652;2023-04-01T05:33:47;33.63;;;14.90;;
69161;SDS011;56269;51.738;21.652;2023-04-01T05:36:15;40.45;;;16.20;;
69161;SDS011;56269;51.738;21.652;2023-04-01T05:38:42;34.45;;;15.55;;
69161;SDS011;56269;51.738;21.652;2023-04-01T05:41:11;41.03;;;16.27;;
69161;SDS011;56269;51.738;21.652;2023-04-01T05:43:38;31.07;;;14.00;;
69161;SDS011;56269;51.738;21.652;2023-04-01T05:46:06;30.42;;;14.35;;
69161;SDS011;56269;51.738;21.652;2023-04-01T05:48:33;35.00;;;14.98;;
69161;SDS011;56269;51.738;21.652;2023-04-01T05:51:01;29.75;;;13.27;;
69161;SDS011;56269;51.738;21.652;2023-04-01T05:53:28;20.70;;;9.57;;
69161;SDS011;56269;51.738;21.652;2023-04-01T05:55:55;20.63;;;9.30;;
69161;SDS011;56269;51.738;21.652;2023-04-01T05:58:22;19.42;;;9.65;;
69161;SDS011;56269;51.738;21.652;2023-04-01T06:00:48;31.45;;;14.63;;
69161;SDS011;56269;51.738;21.652;2023-04-01T06:03:14;26.23;;;11.82;;
69161;SDS011;56269;51.738;21.652;2023-04-01T06:05:42;21.05;;;8.98;;
69161;SDS011;56269;51.738;21.652;2023-04-01T06:08:10;22.77;;;10.40;;
69161;SDS011;56269;51.738;21.652;2023-04-01T06:10:52;26.23;;;12.27;;
69161;SDS011;56269;51.738;21.652;2023-04-01T06:22:26;22.53;;;10.63;;
69161;SDS011;56269;51.738;21.652;2023-04-01T06:55:42;20.63;;;10.00;;
69161;SDS011;56269;51.738;21.652;2023-04-01T06:58:21;22.00;;;11.27;;
69161;SDS011;56269;51.738;21.652;2023-04-01T07:01:03;20.52;;;10.10;;
69161;SDS011;56269;51.738;21.652;2023-04-01T07:06:44;17.15;;;8.25;;
69161;SDS011;56269;51.738;21.652;2023-04-01T07:09:19;18.52;;;10.15;;
69161;SDS011;56269;51.738;21.652;2023-04-01T07:11:48;18.25;;;9.05;;
69161;SDS011;56269;51.738;21.652;2023-04-01T07:19:24;20.80;;;10.10;;
69161;SDS011;56269;51.738;21.652;2023-04-01T07:24:56;16.67;;;7.57;;
69161;SDS011;56269;51.738;21.652;2023-04-01T07:27:27;19.52;;;9.20;;
69161;SDS011;56269;51.738;21.652;2023-04-01T07:29:56;19.63;;;10.17;;
69161;SDS011;56269;51.738;21.652;2023-04-01T07:35:29;15.77;;;7.18;;
69161;SDS011;56269;51.738;21.652;2023-04-01T07:40:47;21.40;;;10.10;;
69161;SDS011;56269;51.738;21.652;2023-04-01T07:46:28;15.88;;;7.93;;
69161;SDS011;56269;51.738;21.652;2023-04-01T07:52:06;14.88;;;7.40;;
69161;SDS011;56269;51.738;21.652;2023-04-01T07:57:21;15.50;;;7.50;;
69161;SDS011;56269;51.738;21.652;2023-04-01T08:00:06;16.52;;;8.27;;
69161;SDS011;56269;51.738;21.652;2023-04-01T08:03:09;15.73;;;8.50;;
69161;SDS011;56269;51.738;21.652;2023-04-01T08:06:24;14.63;;;7.22;;
69161;SDS011;56269;51.738;21.652;2023-04-01T08:15:25;12.15;;;6.10;;
69161;SDS011;56269;51.738;21.652;2023-04-01T08:18:00;12.27;;;6.50;;
69161;SDS011;56269;51.738;21.652;2023-04-01T08:20:56;15.25;;;5.32;;
69161;SDS011;56269;51.738;21.652;2023-04-01T08:23:27;12.55;;;6.78;;
69161;SDS011;56269;51.738;21.652;2023-04-01T08:28:29;11.88;;;5.82;;
69161;SDS011;56269;51.738;21.652;2023-04-01T08:31:03;10.68;;;5.22;;
69161;SDS011;56269;51.738;21.652;2023-04-01T08:33:37;10.90;;;5.90;;
69161;SDS011;56269;51.738;21.652;2023-04-01T08:36:08;9.30;;;4.88;;
69161;SDS011;56269;51.738;21.652;2023-04-01T08:38:44;13.43;;;6.17;;
69161;SDS011;56269;51.738;21.652;2023-04-01T08:56:06;12.68;;;6.90;;
69161;SDS011;56269;51.738;21.652;2023-04-01T08:58:57;12.35;;;7.47;;
69161;SDS011;56269;51.738;21.652;2023-04-01T09:01:46;11.75;;;5.88;;
69161;SDS011;56269;51.738;21.652;2023-04-01T09:07:06;11.30;;;6.23;;
69161;SDS011;56269;51.738;21.652;2023-04-01T09:09:42;10.50;;;5.57;;
69161;SDS011;56269;51.738;21.652;2023-04-01T09:12:44;11.98;;;6.95;;
69161;SDS011;56269;51.738;21.652;2023-04-01T09:17:58;10.13;;;4.70;;
69161;SDS011;56269;51.738;21.652;2023-04-01T09:23:32;11.30;;;6.32;;
69161;SDS011;56269;51.738;21.652;2023-04-01T09:40:56;11.07;;;5.50;;
69161;SDS011;56269;51.738;21.652;2023-04-01T09:43:53;10.43;;;4.45;;
69161;SDS011;56269;51.738;21.652;2023-04-01T09:46:30;10.88;;;5.20;;
69161;SDS011;56269;51.738;21.652;2023-04-01T09:49:22;10.83;;;5.70;;
69161;SDS011;56269;51.738;21.652;2023-04-01T09:54:43;10.07;;;5.75;;
69161;SDS011;56269;51.738;21.652;2023-04-01T10:23:18;10.77;;;5.05;;
69161;SDS011;56269;51.738;21.652;2023-04-01T10:26:22;12.13;;;5.60;;
69161;SDS011;56269;51.738;21.652;2023-04-01T10:53:05;11.43;;;5.70;;
69161;SDS011;56269;51.738;21.652;2023-04-01T10:56:15;9.80;;;5.30;;
69161;SDS011;56269;51.738;21.652;2023-04-01T11:16:13;11.70;;;5.90;;
69161;SDS011;56269;51.738;21.652;2023-04-01T11:25:07;10.63;;;5.85;;
69161;SDS011;56269;51.738;21.652;2023-04-01T11:30:47;11.63;;;5.83;;
69161;SDS011;56269;51.738;21.652;2023-04-01T11:33:48;11.75;;;6.00;;
69161;SDS011;56269;51.738;21.652;2023-04-01T11:36:42;11.43;;;6.18;;
69161;SDS011;56269;51.738;21.652;2023-04-01T11:40:07;11.57;;;6.07;;
69161;SDS011;56269;51.738;21.652;2023-04-01T11:45:56;11.63;;;5.97;;
69161;SDS011;56269;51.738;21.652;2023-04-01T11:48:36;12.57;;;6.00;;
69161;SDS011;56269;51.738;21.652;2023-04-01T11:51:08;13.75;;;6.60;;
69161;SDS011;56269;51.738;21.652;2023-04-01T12:05:02;10.80;;;5.50;;
69161;SDS011;56269;51.738;21.652;2023-04-01T12:10:57;8.45;;;4.53;;
69161;SDS011;56269;51.738;21.652;2023-04-01T12:13:40;10.17;;;5.40;;
69161;SDS011;56269;51.738;21.652;2023-04-01T12:22:23;11.98;;;5.75;;
69161;SDS011;56269;51.738;21.652;2023-04-01T12:27:45;10.60;;;5.63;;
69161;SDS011;56269;51.738;21.652;2023-04-01T12:30:37;10.85;;;5.30;;
69161;SDS011;56269;51.738;21.652;2023-04-01T12:36:18;12.43;;;5.97;;
69161;SDS011;56269;51.738;21.652;2023-04-01T12:55:42;13.07;;;7.17;;
69161;SDS011;56269;51.738;21.652;2023-04-01T13:01:01;10.13;;;5.60;;
69161;SDS011;56269;51.738;21.652;2023-04-01T13:04:02;10.77;;;5.72;;
69161;SDS011;56269;51.738;21.652;2023-04-01T13:06:52;12.18;;;6.72;;
69161;SDS011;56269;51.738;21.652;2023-04-01T13:16:00;10.30;;;5.50;;
69161;SDS011;56269;51.738;21.652;2023-04-01T13:18:55;10.60;;;5.13;;
69161;SDS011;56269;51.738;21.652;2023-04-01T13:21:34;9.88;;;5.60;;
69161;SDS011;56269;51.738;21.652;2023-04-01T13:24:25;9.87;;;5.00;;
69161;SDS011;56269;51.738;21.652;2023-04-01T13:33:16;7.85;;;3.20;;
69161;SDS011;56269;51.738;21.652;2023-04-01T13:43:52;13.32;;;6.30;;
69161;SDS011;56269;51.738;21.652;2023-04-01T13:46:52;11.30;;;4.85;;
69161;SDS011;56269;51.738;21.652;2023-04-01T14:01:09;17.77;;;8.13;;
69161;SDS011;56269;51.738;21.652;2023-04-01T14:03:43;16.85;;;8.20;;
69161;SDS011;56269;51.738;21.652;2023-04-01T14:09:10;15.07;;;7.18;;
69161;SDS011;56269;51.738;21.652;2023-04-01T14:11:54;16.80;;;8.07;;
69161;SDS011;56269;51.738;21.652;2023-04-01T14:14:31;16.67;;;7.75;;
69161;SDS011;56269;51.738;21.652;2023-04-01T14:39:43;16.23;;;7.38;;
69161;SDS011;56269;51.738;21.652;2023-04-01T14:47:59;12.50;;;5.77;;
69161;SDS011;56269;51.738;21.652;2023-04-01T14:50:48;10.65;;;4.47;;
69161;SDS011;56269;51.738;21.652;2023-04-01T14:55:51;9.55;;;4.20;;
69161;SDS011;56269;51.738;21.652;2023-04-01T14:58:19;10.05;;;4.20;;
69161;SDS011;56269;51.738;21.652;2023-04-01T15:14:30;8.97;;;3.97;;
69161;SDS011;56269;51.738;21.652;2023-04-01T15:17:28;8.82;;;3.70;;
69161;SDS011;56269;51.738;21.652;2023-04-01T15:40:07;6.57;;;2.35;;
69161;SDS011;56269;51.738;21.652;2023-04-01T15:45:35;6.25;;;2.40;;
69161;SDS011;56269;51.738;21.652;2023-04-01T15:50:58;11.27;;;4.63;;
69161;SDS011;56269;51.738;21.652;2023-04-01T15:53:46;6.43;;;2.47;;
69161;SDS011;56269;51.738;21.652;2023-04-01T15:56:51;8.83;;;3.70;;
69161;SDS011;56269;51.738;21.652;2023-04-01T16:05:44;5.68;;;2.22;;
69161;SDS011;56269;51.738;21.652;2023-04-01T16:14:33;5.80;;;2.17;;
69161;SDS011;56269;51.738;21.652;2023-04-01T16:20:13;6.47;;;2.30;;
69161;SDS011;56269;51.738;21.652;2023-04-01T16:26:13;6.30;;;2.33;;
69161;SDS011;56269;51.738;21.652;2023-04-01T16:29:02;7.32;;;3.05;;
69161;SDS011;56269;51.738;21.652;2023-04-01T16:34:46;6.00;;;2.60;;
69161;SDS011;56269;51.738;21.652;2023-04-01T16:37:37;6.97;;;2.70;;
69161;SDS011;56269;51.738;21.652;2023-04-01T16:42:51;7.40;;;3.42;;
69161;SDS011;56269;51.738;21.652;2023-04-01T16:51:46;7.75;;;3.38;;
69161;SDS011;56269;51.738;21.652;2023-04-01T16:56:52;9.57;;;3.95;;
69161;SDS011;56269;51.738;21.652;2023-04-01T17:02:54;8.68;;;3.83;;
69161;SDS011;56269;51.738;21.652;2023-04-01T17:05:49;12.85;;;5.78;;
69161;SDS011;56269;51.738;21.652;2023-04-01T17:11:32;10.30;;;4.38;;
69161;SDS011;56269;51.738;21.652;2023-04-01T17:14:19;8.63;;;3.78;;
69161;SDS011;56269;51.738;21.652;2023-04-01T17:16:58;11.55;;;4.18;;
69161;SDS011;56269;51.738;21.652;2023-04-01T17:19:49;12.07;;;4.93;;
69161;SDS011;56269;51.738;21.652;2023-04-01T17:25:37;16.83;;;6.60;;
69161;SDS011;56269;51.738;21.652;2023-04-01T17:31:07;12.48;;;5.80;;
69161;SDS011;56269;51.738;21.652;2023-04-01T17:36:36;14.33;;;7.20;;
69161;SDS011;56269;51.738;21.652;2023-04-01T17:42:23;13.55;;;6.60;;
69161;SDS011;56269;51.738;21.652;2023-04-01T17:45:04;15.95;;;7.30;;
69161;SDS011;56269;51.738;21.652;2023-04-01T17:47:41;15.32;;;7.43;;
69161;SDS011;56269;51.738;21.652;2023-04-01T17:53:13;16.90;;;9.15;;
69161;SDS011;56269;51.738;21.652;2023-04-01T17:58:45;20.35;;;9.85;;
69161;SDS011;56269;51.738;21.652;2023-04-01T18:01:24;21.50;;;10.55;;
69161;SDS011;56269;51.738;21.652;2023-04-01T18:09:18;14.07;;;5.55;;
69161;SDS011;56269;51.738;21.652;2023-04-01T18:20:18;9.48;;;3.88;;
69161;SDS011;56269;51.738;21.652;2023-04-01T18:34:59;7.70;;;3.60;;
69161;SDS011;56269;51.738;21.652;2023-04-01T18:37:47;9.00;;;4.07;;
69161;SDS011;56269;51.738;21.652;2023-04-01T18:40:40;8.73;;;3.10;;
69161;SDS011;56269;51.738;21.652;2023-04-01T18:43:29;9.70;;;3.90;;
69161;SDS011;56269;51.738;21.652;2023-04-01T18:46:05;12.05;;;3.90;;
69161;SDS011;56269;51.738;21.652;2023-04-01T18:48:59;7.93;;;3.37;;
69161;SDS011;56269;51.738;21.652;2023-04-01T18:51:39;7.00;;;2.70;;
69161;SDS011;56269;51.738;21.652;2023-04-01T18:54:26;8.60;;;3.83;;
69161;SDS011;56269;51.738;21.652;2023-04-01T18:57:09;7.75;;;3.20;;
69161;SDS011;56269;51.738;21.652;2023-04-01T19:02:25;8.80;;;3.80;;
69161;SDS011;56269;51.738;21.652;2023-04-01T19:05:02;9.15;;;3.50;;
69161;SDS011;56269;51.738;21.652;2023-04-01T19:07:40;9.93;;;3.80;;
69161;SDS011;56269;51.738;21.652;2023-04-01T19:10:17;8.25;;;3.58;;
69161;SDS011;56269;51.738;21.652;2023-04-01T19:18:31;8.45;;;4.00;;
69161;SDS011;56269;51.738;21.652;2023-04-01T19:34:12;9.13;;;3.80;;
69161;SDS011;56269;51.738;21.652;2023-04-01T19:37:11;9.63;;;3.08;;
69161;SDS011;56269;51.738;21.652;2023-04-01T19:45:26;10.98;;;3.95;;
69161;SDS011;56269;51.738;21.652;2023-04-01T19:57:00;9.10;;;3.00;;
69161;SDS011;56269;51.738;21.652;2023-04-01T19:59:41;7.55;;;3.00;;
69161;SDS011;56269;51.738;21.652;2023-04-01T20:05:47;7.97;;;3.70;;
69161;SDS011;56269;51.738;21.652;2023-04-01T20:16:43;9.13;;;3.43;;
69161;SDS011;56269;51.738;21.652;2023-04-01T20:19:15;8.35;;;3.45;;
69161;SDS011;56269;51.738;21.652;2023-04-01T20:21:59;10.23;;;4.22;;
69161;SDS011;56269;51.738;21.652;2023-04-01T20:29:41;9.53;;;3.40;;
69161;SDS011;56269;51.738;21.652;2023-04-01T20:32:31;8.52;;;3.40;;
69161;SDS011;56269;51.738;21.652;2023-04-01T20:37:57;9.13;;;3.90;;
69161;SDS011;56269;51.738;21.652;2023-04-01T21:13:01;8.82;;;3.45;;
69161;SDS011;56269;51.738;21.652;2023-04-01T21:18:58;9.23;;;4.13;;
69161;SDS011;56269;51.738;21.652;2023-04-01T21:27:20;10.98;;;4.68;;
69161;SDS011;56269;51.738;21.652;2023-04-01T21:39:15;9.13;;;3.70;;
69161;SDS011;56269;51.738;21.652;2023-04-01T21:41:49;12.50;;;5.40;;
69161;SDS011;56269;51.738;21.652;2023-04-01T21:44:42;10.73;;;4.35;;
69161;SDS011;56269;51.738;21.652;2023-04-01T21:56:36;10.60;;;4.40;;
69161;SDS011;56269;51.738;21.652;2023-04-01T21:59:21;8.85;;;3.80;;
69161;SDS011;56269;51.738;21.652;2023-04-01T22:05:16;7.37;;;2.93;;
69161;SDS011;56269;51.738;21.652;2023-04-01T22:07:54;8.40;;;4.05;;
69161;SDS011;56269;51.738;21.652;2023-04-01T22:10:44;12.23;;;4.70;;
69161;SDS011;56269;51.738;21.652;2023-04-01T22:13:17;10.88;;;4.70;;
69161;SDS011;56269;51.738;21.652;2023-04-01T22:21:45;12.85;;;4.82;;
69161;SDS011;56269;51.738;21.652;2023-04-01T22:27:38;11.07;;;5.00;;
69161;SDS011;56269;51.738;21.652;2023-04-01T22:30:20;10.45;;;4.40;;
69161;SDS011;56269;51.738;21.652;2023-04-01T22:44:51;10.65;;;4.43;;
69161;SDS011;56269;51.738;21.652;2023-04-01T22:47:32;11.50;;;5.10;;
69161;SDS011;56269;51.738;21.652;2023-04-01T22:55:18;11.23;;;5.60;;
69161;SDS011;56269;51.738;21.652;2023-04-01T22:57:57;11.30;;;5.38;;
69161;SDS011;56269;51.738;21.652;2023-04-01T23:00:30;10.40;;;4.50;;
69161;SDS011;56269;51.738;21.652;2023-04-01T23:03:19;10.90;;;4.30;;
69161;SDS011;56269;51.738;21.652;2023-04-01T23:05:50;11.23;;;4.53;;
69161;SDS011;56269;51.738;21.652;2023-04-01T23:08:40;13.60;;;5.50;;
69161;SDS011;56269;51.738;21.652;2023-04-01T23:11:15;10.82;;;4.88;;
69161;SDS011;56269;51.738;21.652;2023-04-01T23:13:45;14.03;;;4.17;;
69161;SDS011;56269;51.738;21.652;2023-04-01T23:16:38;8.65;;;4.13;;
69161;SDS011;56269;51.738;21.652;2023-04-01T23:19:11;10.95;;;3.95;;
69161;SDS011;56269;51.738;21.652;2023-04-01T23:21:50;14.02;;;5.03;;
69161;SDS011;56269;51.738;21.652;2023-04-01T23:26:54;9.60;;;3.93;;
69161;SDS011;56269;51.738;21.652;2023-04-01T23:29:26;12.45;;;4.95;;
69161;SDS011;56269;51.738;21.652;2023-04-01T23:32:03;9.30;;;3.58;;
69161;SDS011;56269;51.738;21.652;2023-04-01T23:34:34;15.10;;;6.93;;
69161;SDS011;56269;51.738;21.652;2023-04-01T23:37:03;14.68;;;6.28;;
69161;SDS011;56269;51.738;21.652;2023-04-01T23:39:38;15.03;;;6.63;;
69161;SDS011;56269;51.738;21.652;2023-04-01T23:42:11;14.30;;;6.00;;
69161;SDS011;56269;51.738;21.652;2023-04-01T23:44:38;10.82;;;4.55;;
69161;SDS011;56269;51.738;21.652;2023-04-01T23:47:06;14.13;;;5.90;;
69161;SDS011;56269;51.738;21.652;2023-04-01T23:50:19;13.23;;;5.88;;
69161;SDS011;56269;51.738;21.652;2023-04-01T23:52:36;12.43;;;5.03;;
69161;SDS011;56269;51.738;21.652;2023-04-01T23:55:17;11.30;;;5.10;;
69161;SDS011;56269;51.738;21.652;2023-04-01T23:58:50;13.80;;;6.05;;
